Time;durP1;ratioP1;P1;durP2;ratioP2;P2;SDS_P1;SDS_P2;PMS_P1;PMS_P2;Temp;Humidity;BMP_temperature;BMP_pressure;BME280_temperature;BME280_humidity;BME280_pressure;Samples;Min_cycle;Max_cycle;Signal;HPM_P1;HPM_P2
2021/05/23 00:00:23;;;;;;;6.68;5.70;;;;;;;16.34;65.94;101095.47;5012136;28;102194;-75
2021/05/23 00:02:50;;;;;;;5.70;5.10;;;;;;;16.34;66.00;101089.97;5002529;28;102392;-75
2021/05/23 00:05:19;;;;;;;6.13;5.22;;;;;;;16.35;66.19;101094.34;5006978;28;103614;-74
2021/05/23 00:07:51;;;;;;;6.75;5.78;;;;;;;16.34;66.10;101093.53;5007564;28;102421;-75
2021/05/23 00:10:18;;;;;;;5.45;4.95;;;;;;;16.34;66.41;101099.03;5010292;28;102450;-75
2021/05/23 00:12:46;;;;;;;7.22;5.53;;;;;;;16.34;66.23;101100.97;5011440;28;102544;-75
2021/05/23 00:15:18;;;;;;;6.05;5.45;;;;;;;16.33;66.54;101094.63;5007635;28;102741;-75
2021/05/23 00:17:44;;;;;;;6.68;5.40;;;;;;;16.32;66.68;101087.50;5008651;28;102128;-75
2021/05/23 00:20:12;;;;;;;6.30;5.28;;;;;;;16.33;66.80;101088.31;5009320;28;102852;-75
2021/05/23 00:22:39;;;;;;;7.65;5.43;;;;;;;16.32;66.75;101087.50;5010748;28;102850;-75
2021/05/23 00:25:07;;;;;;;7.53;5.30;;;;;;;16.34;66.62;101095.47;5005669;28;104064;-76
2021/05/23 00:27:33;;;;;;;7.55;5.30;;;;;;;16.32;66.69;101081.19;5007516;28;105382;-75
2021/05/23 00:30:00;;;;;;;6.28;5.30;;;;;;;16.32;66.12;101075.72;5001376;28;102253;-75
2021/05/23 00:32:28;;;;;;;7.18;5.45;;;;;;;16.32;66.26;101075.72;5004281;28;102597;-75
2021/05/23 00:34:54;;;;;;;5.63;4.95;;;;;;;16.31;66.25;101069.41;5003101;28;103730;-75
2021/05/23 00:37:26;;;;;;;7.30;4.60;;;;;;;16.32;66.62;101067.47;5002090;28;102618;-75
2021/05/23 00:39:52;;;;;;;6.10;5.13;;;;;;;16.31;66.82;101068.59;5009045;28;102181;-75
2021/05/23 00:42:19;;;;;;;5.50;4.97;;;;;;;16.31;66.57;101058.41;5011009;28;102823;-75
2021/05/23 00:44:46;;;;;;;7.22;5.35;;;;;;;16.31;66.44;101063.09;5003246;28;103967;-74
2021/05/23 00:47:13;;;;;;;5.40;4.90;;;;;;;16.31;66.63;101052.13;5004652;28;102425;-75
2021/05/23 00:49:41;;;;;;;5.88;5.32;;;;;;;16.31;66.87;101052.13;5008985;28;102211;-75
2021/05/23 00:52:08;;;;;;;5.25;4.45;;;;;;;16.31;66.74;101052.94;5009267;28;102425;-75
2021/05/23 00:54:35;;;;;;;6.72;5.03;;;;;;;16.31;66.55;101063.09;5009557;28;105206;-75
2021/05/23 00:57:03;;;;;;;5.05;4.60;;;;;;;16.31;66.54;101063.09;5009832;28;101967;-75
2021/05/23 00:59:29;;;;;;;5.35;4.72;;;;;;;16.32;66.77;101059.22;5006754;28;102492;-74
2021/05/23 01:02:37;;;;;;;5.40;4.90;;;;;;;16.31;66.64;101063.09;5009514;28;102165;-75
2021/05/23 01:05:06;;;;;;;5.63;5.10;;;;;;;16.31;66.84;101065.84;5008330;28;103928;-74
2021/05/23 01:07:33;;;;;;;5.13;4.72;;;;;;;16.30;66.73;101072.44;5010596;28;104697;-74
2021/05/23 01:10:06;;;;;;;5.95;4.75;;;;;;;16.31;66.88;101074.91;5008358;28;102539;-75
2021/05/23 01:13:01;;;;;;;5.75;4.53;;;;;;;16.32;66.75;101083.94;5011242;28;102015;-75
2021/05/23 01:15:30;;;;;;;4.88;4.30;;;;;;;16.30;66.66;101072.44;5007724;28;104062;-74
2021/05/23 01:18:01;;;;;;;5.43;4.25;;;;;;;16.31;66.73;101077.66;5006118;28;102576;-75
2021/05/23 01:20:40;;;;;;;4.93;4.43;;;;;;;16.30;66.60;101072.44;5005425;28;102428;-75
2021/05/23 01:23:21;;;;;;;4.75;3.80;;;;;;;16.31;66.61;101074.09;4998077;28;103086;-75
2021/05/23 01:25:50;;;;;;;5.07;4.57;;;;;;;16.31;66.58;101074.09;5006890;28;103862;-74
2021/05/23 01:28:19;;;;;;;5.15;4.07;;;;;;;16.31;66.72;101068.59;5009174;28;102524;-74
2021/05/23 01:30:47;;;;;;;4.37;3.97;;;;;;;16.31;66.64;101071.34;5006111;28;102214;-75
2021/05/23 01:33:16;;;;;;;4.65;4.20;;;;;;;16.31;66.77;101079.59;5008376;28;102618;-74
2021/05/23 01:35:51;;;;;;;4.80;4.03;;;;;;;16.30;66.84;101072.44;5007856;28;104058;-75
2021/05/23 01:38:20;;;;;;;4.20;3.75;;;;;;;16.30;66.87;101075.19;5004323;28;103340;-74
2021/05/23 01:40:50;;;;;;;5.53;4.72;;;;;;;16.30;66.58;101075.19;5003039;28;105005;-75
2021/05/23 01:43:19;;;;;;;5.13;4.38;;;;;;;16.30;66.61;101077.94;5013317;28;102646;-75
2021/05/23 01:45:46;;;;;;;4.22;3.83;;;;;;;16.31;66.48;101082.31;5010422;28;103974;-75
2021/05/23 01:48:12;;;;;;;4.75;4.25;;;;;;;16.31;66.67;101079.59;5009929;28;102305;-74
2021/05/23 01:50:39;;;;;;;4.53;4.10;;;;;;;16.31;66.99;101079.59;5010169;28;102634;-75
2021/05/23 01:53:06;;;;;;;4.65;4.00;;;;;;;16.30;66.92;101075.19;5013414;28;102197;-75
2021/05/23 01:55:34;;;;;;;4.00;3.70;;;;;;;16.30;66.60;101077.94;5013431;28;102715;-75
2021/05/23 01:58:11;;;;;;;4.35;3.83;;;;;;;16.29;66.66;101077.13;5011098;28;102484;-75
2021/05/23 02:00:40;;;;;;;4.43;4.03;;;;;;;16.30;66.39;101080.69;5009651;28;102421;-75
2021/05/23 02:03:09;;;;;;;4.28;3.88;;;;;;;16.31;66.75;101074.09;5004498;28;102331;-76
2021/05/23 02:05:38;;;;;;;5.13;4.03;;;;;;;16.31;66.49;101090.56;5010930;28;104020;-75
2021/05/23 02:08:05;;;;;;;4.20;3.47;;;;;;;16.30;66.69;101095.25;5012247;28;101841;-75
2021/05/23 02:10:33;;;;;;;4.28;3.90;;;;;;;16.30;66.87;101083.41;5009573;28;102459;-75
2021/05/23 02:13:00;;;;;;;4.60;4.00;;;;;;;16.30;66.81;101083.41;5011955;28;102586;-75
2021/05/23 02:15:28;;;;;;;4.45;4.05;;;;;;;16.31;66.84;101085.06;5009293;28;104004;-74
2021/05/23 02:17:55;;;;;;;4.32;3.92;;;;;;;16.31;66.57;101085.06;5010776;28;102377;-75
2021/05/23 02:20:24;;;;;;;4.85;3.47;;;;;;;16.30;66.68;101089.75;5007016;28;102180;-75
2021/05/23 02:22:51;;;;;;;4.07;3.67;;;;;;;16.30;66.85;101088.91;5010304;28;102631;-75
2021/05/23 02:25:20;;;;;;;4.10;3.70;;;;;;;16.31;66.97;101090.56;5007581;28;103742;-75
2021/05/23 02:27:48;;;;;;;4.15;3.75;;;;;;;16.29;66.66;101087.28;5005848;28;102278;-74
2021/05/23 02:30:17;;;;;;;4.13;3.63;;;;;;;16.30;66.78;101095.25;5008825;28;102836;-75
2021/05/23 02:32:46;;;;;;;3.97;3.67;;;;;;;16.30;66.93;101095.25;5010863;28;102517;-75
2021/05/23 02:35:17;;;;;;;3.58;3.28;;;;;;;16.30;66.90;101089.75;5009298;28;103923;-74
2021/05/23 02:37:43;;;;;;;3.58;3.28;;;;;;;16.31;66.81;101096.06;5007306;28;102519;-75
2021/05/23 02:40:13;;;;;;;3.05;2.70;;;;;;;16.31;66.84;101096.06;5011160;28;101944;-75
2021/05/23 02:42:41;;;;;;;3.47;3.10;;;;;;;16.30;66.83;101095.25;5012016;28;102386;-75
2021/05/23 02:45:10;;;;;;;3.78;3.30;;;;;;;16.30;66.66;101102.66;5007663;28;103883;-75
2021/05/23 02:47:38;;;;;;;3.72;3.42;;;;;;;16.30;66.96;101105.41;5009367;28;102351;-75
2021/05/23 02:50:08;;;;;;;3.63;3.33;;;;;;;16.30;67.33;101095.25;5011851;28;102421;-75
2021/05/23 02:52:35;;;;;;;3.58;3.28;;;;;;;16.30;67.14;101102.66;5010272;28;102120;-75
2021/05/23 02:55:02;;;;;;;3.80;3.42;;;;;;;16.30;67.12;101108.13;5008055;28;102692;-75
2021/05/23 02:57:28;;;;;;;3.60;3.30;;;;;;;16.31;66.98;101104.31;5004494;28;102411;-74
2021/05/23 02:59:57;;;;;;;3.42;3.13;;;;;;;16.30;66.91;101108.13;5009989;28;103058;-75
2021/05/23 03:02:24;;;;;;;3.75;3.38;;;;;;;16.29;66.40;101104.59;5009958;28;102574;-75
2021/05/23 03:04:50;;;;;;;3.70;3.25;;;;;;;16.30;66.82;101099.91;5009965;28;103868;-75
2021/05/23 03:07:18;;;;;;;3.38;3.08;;;;;;;16.29;66.93;101101.03;5005032;28;102364;-74
2021/05/23 03:09:45;;;;;;;3.60;3.30;;;;;;;16.30;67.16;101105.41;4996823;28;102424;-74
2021/05/23 03:12:11;;;;;;;4.40;3.17;;;;;;;16.30;66.82;101105.41;5011423;28;102109;-74
2021/05/23 03:14:40;;;;;;;3.85;3.22;;;;;;;16.29;67.02;101088.09;5002032;28;103883;-75
2021/05/23 03:17:07;;;;;;;;;;;;;;;16.30;67.17;101094.41;5009515;28;102070;-75
2021/05/23 03:19:34;;;;;;;3.53;3.22;;;;;;;16.28;66.84;101094.72;5008688;28;102585;-75
2021/05/23 03:22:03;;;;;;;3.35;3.05;;;;;;;16.30;66.63;101091.66;5009867;28;102660;-74
2021/05/23 03:24:30;;;;;;;3.20;2.90;;;;;;;16.30;66.89;101083.41;5010359;28;103871;-75
2021/05/23 03:26:57;;;;;;;3.05;2.75;;;;;;;16.30;66.77;101083.41;5007438;28;102549;-75
2021/05/23 03:29:24;;;;;;;3.92;3.35;;;;;;;16.30;66.49;101088.91;5008045;28;101999;-74
2021/05/23 03:31:50;;;;;;;4.60;2.97;;;;;;;16.31;66.34;101094.13;5010843;28;102725;-75
2021/05/23 03:34:18;;;;;;;3.92;3.53;;;;;;;16.31;66.28;101093.31;5006213;28;103940;-74
2021/05/23 03:36:44;;;;;;;3.53;2.95;;;;;;;16.32;66.22;101094.94;5008156;28;102718;-74
2021/05/23 03:39:11;;;;;;;4.28;3.40;;;;;;;16.33;66.62;101099.31;5010124;28;102547;-74
2021/05/23 03:41:39;;;;;;;2.97;2.78;;;;;;;16.33;66.42;101104.78;5012285;28;102633;-74
2021/05/23 03:44:06;;;;;;;3.38;2.88;;;;;;;16.33;66.20;101104.78;5008268;28;103839;-74
2021/05/23 03:46:33;;;;;;;4.00;3.50;;;;;;;16.34;66.27;101103.69;5007959;28;102717;-75
2021/05/23 03:49:01;;;;;;;3.83;2.70;;;;;;;16.33;66.43;101110.28;5009786;28;102546;-75
2021/05/23 03:51:28;;;;;;;3.05;2.70;;;;;;;16.33;66.32;101105.59;5013243;28;102495;-74
2021/05/23 03:53:54;;;;;;;3.42;3.05;;;;;;;16.33;66.49;101110.28;5008964;28;104237;-75
2021/05/23 03:56:22;;;;;;;2.67;2.47;;;;;;;16.34;66.53;101112.75;5007900;28;102446;-75
2021/05/23 03:58:49;;;;;;;3.25;2.95;;;;;;;16.35;66.25;101108.06;5004908;28;102727;-75
2021/05/23 04:01:16;;;;;;;2.90;2.70;;;;;;;16.36;66.67;101104.19;4996892;28;102231;-74
2021/05/23 04:03:43;;;;;;;3.35;3.05;;;;;;;16.36;66.12;101103.38;5009921;28;104017;-75
2021/05/23 04:06:09;;;;;;;3.35;2.92;;;;;;;16.36;66.40;101109.69;5013437;28;102557;-74
2021/05/23 04:08:36;;;;;;;3.30;3.00;;;;;;;16.37;66.17;101116.81;5009994;28;102234;-74
2021/05/23 04:11:15;;;;;;;2.70;2.50;;;;;;;16.38;66.60;101112.97;5000804;28;102779;-75
2021/05/23 04:13:44;;;;;;;3.20;2.90;;;;;;;16.39;66.29;101125.56;5010180;28;104033;-75
2021/05/23 04:16:12;;;;;;;3.20;2.67;;;;;;;16.40;66.40;101127.19;5008011;28;102199;-74
2021/05/23 04:18:39;;;;;;;3.05;2.55;;;;;;;16.40;66.67;101123.66;5008121;28;102975;-75
2021/05/23 04:21:06;;;;;;;2.97;2.65;;;;;;;16.40;66.53;101132.69;5007076;28;102339;-75
2021/05/23 04:23:33;;;;;;;3.75;2.83;;;;;;;16.42;66.61;101141.47;5004773;28;103898;-75
2021/05/23 04:26:00;;;;;;;3.65;2.70;;;;;;;16.43;66.88;101142.28;5007445;28;102510;-75
2021/05/23 04:28:27;;;;;;;2.65;2.45;;;;;;;16.43;66.84;101126.59;5004181;28;102224;-74
2021/05/23 04:30:53;;;;;;;3.13;2.80;;;;;;;16.43;66.74;101134.84;5004010;28;103773;-74
2021/05/23 04:33:21;;;;;;;3.20;2.90;;;;;;;16.44;66.94;101136.47;5008087;28;102426;-74
2021/05/23 04:35:47;;;;;;;3.20;2.80;;;;;;;16.43;67.08;101145.84;5005305;28;102212;-75
2021/05/23 04:38:14;;;;;;;3.10;2.72;;;;;;;16.45;66.59;101151.03;5009766;28;102085;-74
2021/05/23 04:40:41;;;;;;;2.80;2.60;;;;;;;16.45;66.93;101145.56;5008154;28;102309;-75
2021/05/23 04:43:07;;;;;;;3.35;2.72;;;;;;;16.46;66.81;101142.50;5007237;28;104191;-74
2021/05/23 04:45:34;;;;;;;2.70;2.50;;;;;;;16.46;66.90;101138.94;5010336;28;102832;-74
2021/05/23 04:48:00;;;;;;;3.13;2.83;;;;;;;16.48;66.92;101139.44;5009779;28;102505;-74
2021/05/23 04:50:28;;;;;;;3.45;2.80;;;;;;;16.48;66.95;101140.28;5011516;28;102204;-74
2021/05/23 04:52:55;;;;;;;2.60;2.40;;;;;;;16.48;66.63;101134.78;5008561;28;103809;-74
2021/05/23 04:55:21;;;;;;;2.97;2.63;;;;;;;16.49;66.64;101147.38;5009469;28;102235;-74
2021/05/23 04:57:48;;;;;;;3.65;2.65;;;;;;;16.49;66.95;101150.13;4999949;28;102688;-74
2021/05/23 05:00:15;;;;;;;2.97;2.72;;;;;;;16.50;66.68;101154.50;5000479;28;102195;-74
2021/05/23 05:02:42;;;;;;;2.40;2.20;;;;;;;16.51;67.18;101153.38;5007607;28;103856;-74
2021/05/23 05:05:10;;;;;;;3.38;2.85;;;;;;;16.51;66.89;101156.13;5006892;28;102251;-74
2021/05/23 05:07:38;;;;;;;3.08;2.67;;;;;;;16.53;66.71;101162.16;5001219;28;102242;-74
2021/05/23 05:10:06;;;;;;;3.00;2.70;;;;;;;16.53;66.76;101167.66;5010536;28;102177;-74
2021/05/23 05:12:32;;;;;;;2.80;2.53;;;;;;;16.56;66.89;101163.50;5006622;28;103891;-74
2021/05/23 05:14:58;;;;;;;2.70;2.50;;;;;;;16.58;66.83;101167.53;5008399;28;102126;-74
2021/05/23 05:17:25;;;;;;;2.60;2.40;;;;;;;16.60;67.02;101174.69;5006659;28;102319;-74
2021/05/23 05:19:51;;;;;;;2.67;2.47;;;;;;;16.61;66.98;101165.34;5010139;28;102632;-74
2021/05/23 05:22:18;;;;;;;2.85;2.53;;;;;;;16.62;66.61;101166.94;5005890;28;103943;-75
2021/05/23 05:24:46;;;;;;;2.47;2.28;;;;;;;16.63;67.02;101163.09;5008947;28;102134;-75
2021/05/23 05:27:13;;;;;;;2.95;2.55;;;;;;;16.64;66.94;101157.31;5006154;28;102935;-74
2021/05/23 05:29:39;;;;;;;2.42;2.22;;;;;;;16.66;66.47;101156.97;5009834;28;102532;-74
2021/05/23 05:32:06;;;;;;;3.33;2.47;;;;;;;16.68;66.46;101154.75;5004875;28;103801;-74
2021/05/23 05:34:32;;;;;;;2.70;2.50;;;;;;;16.70;66.54;101153.34;5002627;28;102392;-74
2021/05/23 05:36:59;;;;;;;2.95;2.65;;;;;;;16.73;66.45;101157.41;5009479;28;102850;-74
2021/05/23 05:39:26;;;;;;;2.60;2.40;;;;;;;16.73;66.40;101152.75;5006078;28;102824;-74
2021/05/23 05:41:53;;;;;;;3.78;2.53;;;;;;;16.76;67.10;101162.34;5006783;28;104280;-74
2021/05/23 05:44:19;;;;;;;2.95;2.08;;;;;;;16.77;66.42;101155.75;5006840;28;102592;-74
2021/05/23 05:46:46;;;;;;;3.25;2.00;;;;;;;16.80;66.49;101146.88;5008764;28;102677;-74
2021/05/23 05:49:13;;;;;;;3.10;2.17;;;;;;;16.80;66.65;101149.63;5008505;28;102714;-74
2021/05/23 05:51:39;;;;;;;2.42;2.20;;;;;;;16.84;66.32;101152.56;5009496;28;103737;-74
2021/05/23 05:54:06;;;;;;;2.60;2.40;;;;;;;16.85;66.42;101156.97;5010191;28;102391;-74
2021/05/23 05:56:33;;;;;;;2.40;2.17;;;;;;;16.87;66.76;101157.47;5008428;28;102885;-74
2021/05/23 05:59:00;;;;;;;2.53;2.08;;;;;;;16.87;66.71;101141.78;5008601;28;102606;-74
2021/05/23 06:01:27;;;;;;;1.98;1.75;;;;;;;16.88;66.39;101151.69;4999283;28;103851;-74
2021/05/23 06:03:53;;;;;;;4.85;2.50;;;;;;;16.87;66.42;101152.78;5000492;28;102572;-74
2021/05/23 06:06:20;;;;;;;2.50;2.30;;;;;;;16.89;66.84;101158.81;5004433;28;102400;-75
2021/05/23 06:08:46;;;;;;;2.40;2.15;;;;;;;16.89;66.57;101150.56;5007837;28;102588;-75
2021/05/23 06:11:13;;;;;;;5.47;2.30;;;;;;;16.91;66.35;101148.31;5019363;28;103937;-74
2021/05/23 06:13:39;;;;;;;2.75;2.25;;;;;;;16.92;66.54;101147.22;5008523;28;102397;-74
2021/05/23 06:16:07;;;;;;;2.45;2.25;;;;;;;16.92;66.61;101144.47;5000058;28;102138;-74
2021/05/23 06:18:34;;;;;;;2.20;2.00;;;;;;;16.94;66.76;101163.38;5011249;28;105050;-74
2021/05/23 06:21:01;;;;;;;2.42;2.22;;;;;;;16.94;66.42;101169.69;5001765;28;103929;-76
2021/05/23 06:23:28;;;;;;;2.67;2.20;;;;;;;16.93;66.51;101168.09;5012216;28;102388;-74
2021/05/23 06:25:54;;;;;;;2.42;2.22;;;;;;;16.94;66.36;101164.19;5006567;28;102503;-75
2021/05/23 06:28:21;;;;;;;2.35;2.15;;;;;;;16.95;66.33;101176.84;5005738;28;102464;-74
2021/05/23 06:30:47;;;;;;;2.63;2.03;;;;;;;16.97;66.25;101168.28;5008874;28;103677;-75
2021/05/23 06:33:15;;;;;;;2.00;1.90;;;;;;;16.98;66.64;101170.72;5008962;28;102292;-74
2021/05/23 06:35:41;;;;;;;2.28;1.85;;;;;;;16.99;66.60;101160.56;5009533;28;102574;-75
2021/05/23 06:38:08;;;;;;;2.50;2.05;;;;;;;16.98;66.59;101159.72;5011591;28;105102;-75
2021/05/23 06:40:34;;;;;;;2.30;2.10;;;;;;;17.14;66.29;101168.50;5008904;28;103935;-71
2021/05/23 06:43:03;;;;;;;18.20;2.93;;;;;;;17.37;66.28;101169.44;5004069;28;102447;-73
2021/05/23 06:45:29;;;;;;;5.85;2.17;;;;;;;17.12;66.38;101156.19;5013295;28;102709;-72
2021/05/23 06:47:56;;;;;;;3.08;2.28;;;;;;;17.03;66.36;101159.66;5009332;28;103745;-73
2021/05/23 06:50:23;;;;;;;3.03;2.65;;;;;;;16.99;66.63;101150.38;5017441;28;103968;-73
2021/05/23 06:52:50;;;;;;;3.70;2.30;;;;;;;16.99;66.86;101149.56;5016611;27;102959;-73
2021/05/23 06:55:16;;;;;;;5.10;2.50;;;;;;;16.98;66.98;101156.97;5008258;27;102370;-72
2021/05/23 06:57:43;;;;;;;3.38;2.63;;;;;;;16.98;67.17;101167.97;5016548;28;102285;-72
2021/05/23 07:00:11;;;;;;;2.60;2.40;;;;;;;17.00;66.75;101162.19;5012101;27;104122;-72
2021/05/23 07:02:38;;;;;;;4.33;2.00;;;;;;;17.02;66.62;101154.44;5011763;27;102244;-73
2021/05/23 07:05:06;;;;;;;3.00;2.35;;;;;;;17.02;66.67;101149.78;5011185;28;102233;-73
2021/05/23 07:07:33;;;;;;;2.50;2.30;;;;;;;17.04;66.65;101152.22;5006943;28;102321;-72
2021/05/23 07:10:00;;;;;;;3.45;2.13;;;;;;;17.05;66.86;101149.13;5009498;28;102835;-73
2021/05/23 07:12:27;;;;;;;5.15;2.05;;;;;;;17.04;66.53;101144.78;5009108;28;102472;-72
2021/05/23 07:14:53;;;;;;;5.38;2.45;;;;;;;17.05;66.66;101143.63;5004591;28;102256;-73
2021/05/23 07:17:20;;;;;;;2.40;2.20;;;;;;;17.05;66.98;101143.63;5004553;28;102376;-73
2021/05/23 07:19:47;;;;;;;4.47;2.35;;;;;;;17.05;66.97;101146.38;5008593;28;103446;-73
2021/05/23 07:22:14;;;;;;;2.65;2.30;;;;;;;17.07;66.83;101142.53;5007827;28;102423;-73
2021/05/23 07:24:41;;;;;;;3.55;2.40;;;;;;;17.08;66.54;101144.16;5010171;28;102311;-72
2021/05/23 07:27:08;;;;;;;2.42;2.22;;;;;;;17.09;66.48;101143.84;5008990;28;102875;-73
2021/05/23 07:29:35;;;;;;;3.47;2.17;;;;;;;17.09;66.71;101151.28;5007458;28;103658;-73
2021/05/23 07:32:02;;;;;;;4.00;2.10;;;;;;;17.10;66.49;101145.50;5005462;28;102425;-72
2021/05/23 07:34:29;;;;;;;2.85;2.40;;;;;;;17.10;66.90;101140.00;5011843;28;102535;-73
2021/05/23 07:36:56;;;;;;;2.25;1.95;;;;;;;17.11;66.40;101146.31;5013509;28;102644;-73
2021/05/23 07:39:22;;;;;;;4.05;2.50;;;;;;;17.12;66.60;101153.44;5008839;28;102868;-73
2021/05/23 07:41:50;;;;;;;2.85;2.10;;;;;;;17.13;66.54;101155.91;5008358;28;102322;-73
2021/05/23 07:44:17;;;;;;;1.90;1.80;;;;;;;17.14;66.72;101163.00;5006515;28;102595;-73
2021/05/23 07:46:46;;;;;;;3.17;2.23;;;;;;;17.15;66.38;101161.06;5008330;27;102242;-73
2021/05/23 07:49:13;;;;;;;2.70;2.50;;;;;;;17.15;66.86;101161.06;5004912;28;104290;-73
2021/05/23 07:51:40;;;;;;;1.92;1.83;;;;;;;17.14;66.67;101157.50;5009162;27;102457;-71
2021/05/23 07:54:06;;;;;;;2.42;2.22;;;;;;;17.16;66.84;101159.94;5008419;28;102266;-72
2021/05/23 07:56:33;;;;;;;3.58;2.10;;;;;;;17.16;66.73;101155.25;5007726;28;102391;-72
2021/05/23 07:59:00;;;;;;;2.50;1.70;;;;;;;17.18;66.83;101163.22;5007927;28;103717;-72
2021/05/23 08:01:27;;;;;;;2.60;2.10;;;;;;;17.19;66.28;101160.16;5005532;28;102152;-72
2021/05/23 08:03:53;;;;;;;5.80;2.15;;;;;;;17.19;66.21;101157.41;5004643;28;102835;-72
2021/05/23 08:06:20;;;;;;;2.55;2.35;;;;;;;17.23;66.35;101149.34;5010574;28;102179;-72
2021/05/23 08:08:47;;;;;;;2.20;2.00;;;;;;;17.23;66.08;101143.84;5007512;28;103412;-72
2021/05/23 08:11:14;;;;;;;2.25;2.10;;;;;;;17.24;66.30;101149.06;5011400;28;102760;-72
2021/05/23 08:13:40;;;;;;;2.67;2.15;;;;;;;17.25;66.35;101147.13;5011959;28;102537;-72
2021/05/23 08:16:10;;;;;;;2.42;1.98;;;;;;;17.26;66.13;101148.75;5013865;28;102110;-73
2021/05/23 08:18:38;;;;;;;2.22;2.00;;;;;;;17.25;66.34;101153.44;5007425;28;103892;-72
2021/05/23 08:21:06;;;;;;;2.80;2.40;;;;;;;17.27;66.27;101150.38;5010130;28;102043;-73
2021/05/23 08:23:35;;;;;;;2.13;2.03;;;;;;;17.25;66.57;101155.38;5010540;28;102015;-72
2021/05/23 08:26:02;;;;;;;2.75;2.50;;;;;;;17.25;66.65;101152.63;5009062;28;102597;-73
2021/05/23 08:28:32;;;;;;;2.40;2.20;;;;;;;17.25;66.72;101156.19;5007650;28;103794;-72
2021/05/23 08:30:58;;;;;;;1.90;1.80;;;;;;;17.27;66.35;101161.38;5011509;28;102288;-73
2021/05/23 08:33:26;;;;;;;3.00;1.90;;;;;;;17.26;66.68;101154.25;5008770;28;102458;-72
2021/05/23 08:35:52;;;;;;;2.17;1.95;;;;;;;17.26;66.25;101157.00;5005908;28;102691;-73
2021/05/23 08:38:19;;;;;;;2.40;2.08;;;;;;;17.26;66.58;101160.56;5004417;28;103560;-72
2021/05/23 08:40:45;;;;;;;2.33;2.00;;;;;;;17.28;66.78;101152.03;5011639;27;102288;-72
2021/05/23 08:43:14;;;;;;;2.58;2.05;;;;;;;17.29;66.44;101161.91;5008416;27;102245;-72
2021/05/23 08:45:41;;;;;;;2.47;2.20;;;;;;;17.29;66.50;101153.66;5005443;28;102469;-72
2021/05/23 08:48:08;;;;;;;2.30;2.10;;;;;;;17.29;66.73;101164.66;5005794;28;103992;-72
2021/05/23 08:50:35;;;;;;;2.85;1.67;;;;;;;17.29;66.52;101159.16;5006993;28;102119;-72
2021/05/23 08:53:04;;;;;;;2.38;2.00;;;;;;;17.28;66.57;101158.34;5009804;28;102140;-72
2021/05/23 08:55:42;;;;;;;3.03;1.80;;;;;;;17.28;66.65;101157.53;5008167;28;102617;-72
2021/05/23 08:58:09;;;;;;;2.20;2.00;;;;;;;17.28;66.18;101157.53;5005152;28;103938;-72
2021/05/23 09:00:37;;;;;;;2.35;2.15;;;;;;;17.27;66.26;101158.63;5002709;28;103385;-72
2021/05/23 09:03:06;;;;;;;2.28;2.10;;;;;;;17.27;66.79;101162.22;5005990;28;102402;-72
2021/05/23 09:05:35;;;;;;;2.88;2.00;;;;;;;17.28;66.64;101168.53;5009152;28;102102;-73
2021/05/23 09:08:07;;;;;;;2.35;2.00;;;;;;;17.26;66.70;101170.75;5003490;28;103972;-72
2021/05/23 09:10:36;;;;;;;2.30;2.10;;;;;;;17.27;66.51;101164.13;5008504;28;102070;-72
2021/05/23 09:13:03;;;;;;;2.35;2.15;;;;;;;17.25;66.56;101163.63;5003331;28;102343;-73
2021/05/23 09:15:30;;;;;;;2.42;2.22;;;;;;;17.25;66.69;101163.63;5005265;28;102457;-72
2021/05/23 09:18:05;;;;;;;4.32;2.28;;;;;;;17.25;66.89;101158.94;5005410;28;103892;-73
2021/05/23 09:20:33;;;;;;;2.10;1.95;;;;;;;17.24;66.62;101156.50;5010241;28;102756;-73
2021/05/23 09:23:01;;;;;;;3.40;2.40;;;;;;;17.23;66.50;101163.91;5000993;28;102834;-72
2021/05/23 09:25:31;;;;;;;2.50;2.30;;;;;;;17.21;66.42;101146.94;5008924;28;102571;-72
2021/05/23 09:27:59;;;;;;;2.40;2.20;;;;;;;17.23;66.64;101154.84;4997504;28;103866;-73
2021/05/23 09:30:30;;;;;;;2.35;2.13;;;;;;;17.22;66.75;101153.22;5004173;28;102614;-72
2021/05/23 09:32:57;;;;;;;2.58;2.38;;;;;;;17.23;66.68;101165.84;5007540;28;103087;-73
2021/05/23 09:35:26;;;;;;;7.55;2.50;;;;;;;17.22;66.63;101158.75;5006847;28;102909;-72
2021/05/23 09:38:04;;;;;;;2.80;2.60;;;;;;;17.22;66.53;101161.50;5005101;28;103685;-73
2021/05/23 09:40:34;;;;;;;2.83;2.63;;;;;;;17.23;67.07;101163.09;5006159;28;103654;-73
2021/05/23 09:43:02;;;;;;;2.58;2.38;;;;;;;17.26;66.50;101162.50;5002819;28;102768;-67
2021/05/23 09:45:41;;;;;;;5.70;2.87;;;;;;;18.58;66.77;101161.50;5006054;28;102794;-71
2021/05/23 09:48:15;;;;;;;82.22;8.13;;;;;;;19.19;65.09;101164.59;5002857;28;103136;-75
2021/05/23 09:51:12;;;;;;;27.42;3.90;;;;;;;19.14;64.57;101167.47;5004003;28;102351;-74
2021/05/23 09:53:42;;;;;;;8.07;2.80;;;;;;;19.32;63.64;101168.38;5005170;28;102971;-74
2021/05/23 09:56:12;;;;;;;10.43;3.00;;;;;;;19.27;63.59;101161.06;5011058;28;102238;-75
2021/05/23 09:58:41;;;;;;;15.20;2.75;;;;;;;19.47;63.73;101158.81;5003974;27;103009;-75
2021/05/23 10:01:08;;;;;;;;;;;;;;;19.48;63.95;101163.22;4995376;28;102719;-74
2021/05/23 10:03:37;;;;;;;9.57;2.72;;;;;;;19.45;64.37;101157.22;5007488;28;102741;-74
2021/05/23 10:06:07;;;;;;;;;;;;;;;19.24;65.78;101158.13;5009320;28;102615;-76
2021/05/23 10:08:33;;;;;;;468.27;34.22;;;;;;;19.40;66.54;101162.88;5008639;28;103922;-72
2021/05/23 10:11:00;;;;;;;162.35;12.63;;;;;;;19.31;66.24;101164.78;5011914;28;102501;-72
2021/05/23 10:13:28;;;;;;;39.78;5.78;;;;;;;19.15;65.70;101155.34;5006348;28;102722;-72
2021/05/23 10:15:55;;;;;;;42.00;5.45;;;;;;;19.19;66.04;101159.88;5007392;28;102938;-72
2021/05/23 10:18:27;;;;;;;21.48;3.20;;;;;;;19.39;64.83;101161.25;5003468;28;104003;-73
2021/05/23 10:20:55;;;;;;;31.75;3.92;;;;;;;19.47;65.61;101159.63;5005507;28;102269;-70
2021/05/23 10:23:28;;;;;;;13.02;3.53;;;;;;;19.48;64.20;101171.50;4999126;28;102586;-70
2021/05/23 10:25:57;;;;;;;8.73;3.00;;;;;;;19.40;64.62;101168.41;5004703;28;102936;-71
2021/05/23 10:28:24;;;;;;;11.10;2.88;;;;;;;19.15;65.45;101169.13;5006070;28;103835;-71
2021/05/23 10:30:55;;;;;;;10.88;2.83;;;;;;;19.31;64.34;101173.06;5002594;28;102575;-70
2021/05/23 10:33:23;;;;;;;30.88;8.40;;;;;;;19.44;63.96;101166.63;4999842;28;102635;-75
2021/05/23 10:35:51;;;;;;;17.88;4.07;;;;;;;19.44;62.51;101161.13;5003770;28;102785;-74
2021/05/23 10:38:22;;;;;;;21.40;4.53;;;;;;;19.25;63.12;101168.81;5009061;28;102603;-73
2021/05/23 10:40:54;;;;;;;10.43;3.33;;;;;;;19.30;62.67;101170.66;5012983;28;103120;-73
2021/05/23 10:43:23;;;;;;;8.20;2.85;;;;;;;19.44;62.30;101174.91;5005132;28;102714;-71
2021/05/23 10:46:02;;;;;;;34.65;24.85;;;;;;;19.41;60.97;101160.94;5010395;27;102613;-74
2021/05/23 10:48:29;;;;;;;55.20;34.60;;;;;;;19.51;59.00;101165.31;5003205;28;104026;-77
2021/05/23 10:50:55;;;;;;;40.03;27.10;;;;;;;19.59;60.39;101164.56;5009176;28;102676;-77
2021/05/23 10:53:32;;;;;;;14.07;10.40;;;;;;;19.67;60.87;101177.59;5009540;28;102172;-77
2021/05/23 10:55:58;;;;;;;29.52;22.27;;;;;;;19.30;61.14;101179.72;5011228;28;102218;-77
2021/05/23 10:58:27;;;;;;;11.48;8.25;;;;;;;19.28;61.76;101167.38;5017949;27;104089;-76
2021/05/23 11:00:56;;;;;;;11.77;6.82;;;;;;;19.45;61.17;101172.97;5017672;28;102850;-76
2021/05/23 11:03:26;;;;;;;6.68;4.80;;;;;;;19.45;59.50;101168.25;5016538;27;102064;-76
2021/05/23 11:06:04;;;;;;;6.80;6.10;;;;;;;19.57;59.49;101172.34;5012823;27;102774;-76
2021/05/23 11:08:31;;;;;;;8.13;4.85;;;;;;;19.51;60.21;101182.72;5012435;28;102817;-75
2021/05/23 11:10:59;;;;;;;13.20;8.45;;;;;;;19.88;58.51;101175.84;5001246;28;103474;-77
2021/05/23 11:13:31;;;;;;;8.00;5.95;;;;;;;20.04;58.92;101181.69;5012502;28;102673;-72
2021/05/23 11:16:09;;;;;;;6.10;4.15;;;;;;;19.98;58.84;101173.88;5022940;27;102710;-76
2021/05/23 11:18:37;;;;;;;5.53;3.70;;;;;;;19.83;58.37;101178.75;5003461;28;103721;-77
2021/05/23 11:21:14;;;;;;;7.38;4.32;;;;;;;19.75;58.82;101171.25;5011390;28;102596;-77